createdAt,value
2022-12-22T00:03:51.786Z,81.01
2022-12-22T00:08:51.621Z,82.05
2022-12-22T00:13:51.456Z,81.80
2022-12-22T00:18:51.568Z,80.76
2022-12-22T00:23:51.514Z,80.29
2022-12-22T00:28:51.493Z,80.68
2022-12-22T00:33:51.504Z,80.04
2022-12-22T00:38:51.509Z,79.75
2022-12-22T00:43:51.514Z,79.40
2022-12-22T00:48:51.484Z,79.06
2022-12-22T00:53:51.533Z,79.29
2022-12-22T00:58:51.502Z,79.10
2022-12-22T01:03:51.664Z,79.43
2022-12-22T01:13:51.533Z,81.15
2022-12-22T01:18:51.674Z,80.01
2022-12-22T01:23:51.547Z,80.36
2022-12-22T01:28:51.673Z,79.89
2022-12-22T01:33:51.544Z,79.80
2022-12-22T01:38:51.646Z,78.69
2022-12-22T01:43:51.513Z,78.69
2022-12-22T01:53:51.529Z,77.22
2022-12-22T01:58:51.523Z,77.46
2022-12-22T02:03:51.838Z,77.07
2022-12-22T02:08:51.533Z,77.69
2022-12-22T02:13:51.505Z,76.90
2022-12-22T02:18:51.535Z,76.86
2022-12-22T02:23:51.646Z,77.40
2022-12-22T02:28:51.522Z,77.32
2022-12-22T02:33:51.634Z,77.92
2022-12-22T02:38:51.521Z,77.92
2022-12-22T02:43:51.604Z,76.49
2022-12-22T02:48:51.819Z,77.77
2022-12-22T02:58:51.687Z,78.56
2022-12-22T03:03:51.694Z,78.27
2022-12-22T03:08:51.528Z,77.95
2022-12-22T03:13:51.547Z,77.58
2022-12-22T03:18:51.658Z,77.66
2022-12-22T03:23:51.523Z,78.58
2022-12-22T03:28:51.578Z,79.19
2022-12-22T03:38:51.580Z,80.06
2022-12-22T03:43:51.642Z,80.53
2022-12-22T03:48:51.529Z,81.96
2022-12-22T03:53:51.678Z,83.06
2022-12-22T03:58:51.562Z,83.06
2022-12-22T04:03:51.555Z,85.63
2022-12-22T04:08:51.839Z,88.82
2022-12-22T04:13:51.746Z,88.52
2022-12-22T04:18:51.563Z,88.52
2022-12-22T04:28:51.647Z,93.06
2022-12-22T04:33:51.616Z,94.31
2022-12-22T04:38:51.723Z,93.37
2022-12-22T04:43:51.587Z,93.37
2022-12-22T04:48:57.695Z,94.68
2022-12-22T04:53:51.552Z,94.68
2022-12-22T04:58:51.582Z,91.57
2022-12-22T05:03:51.641Z,91.17
2022-12-22T05:08:51.619Z,92.94
2022-12-22T05:13:51.771Z,91.89
2022-12-22T05:18:51.611Z,91.95
2022-12-22T05:23:51.584Z,91.95
2022-12-22T05:28:51.752Z,91.15
2022-12-22T05:33:51.719Z,92.00
2022-12-22T05:38:51.591Z,94.77
2022-12-22T05:43:51.689Z,93.18
2022-12-22T05:48:51.570Z,93.18
2022-12-22T05:53:51.598Z,93.87
2022-12-22T05:58:51.808Z,95.03
2022-12-22T06:03:56.259Z,95.12
2022-12-22T06:08:51.773Z,95.67
2022-12-22T06:13:51.592Z,97.01
2022-12-22T06:18:51.639Z,96.62
2022-12-22T06:23:51.615Z,96.40
2022-12-22T06:28:51.626Z,95.33
2022-12-22T06:33:51.643Z,95.35
2022-12-22T06:38:51.696Z,95.48
2022-12-22T06:43:51.816Z,95.55
2022-12-22T06:48:51.623Z,96.19
2022-12-22T06:53:51.797Z,96.07
2022-12-22T06:58:51.588Z,95.48
2022-12-22T07:03:51.821Z,95.49
2022-12-22T07:08:51.630Z,95.49
2022-12-22T07:13:51.632Z,93.80
2022-12-22T07:18:51.627Z,93.68
2022-12-22T07:23:51.658Z,93.52
2022-12-22T07:28:51.642Z,94.94
2022-12-22T07:33:51.655Z,94.94
2022-12-22T07:38:51.806Z,95.19
2022-12-22T07:43:51.672Z,94.36
2022-12-22T07:48:51.761Z,94.93
2022-12-22T07:53:51.663Z,93.96
2022-12-22T07:58:51.659Z,93.86
2022-12-22T08:03:51.625Z,93.65
2022-12-22T08:08:51.767Z,93.52
2022-12-22T08:13:57.341Z,94.31
2022-12-22T08:18:51.650Z,93.68
2022-12-22T08:23:51.670Z,94.62
2022-12-22T08:28:51.663Z,94.71
2022-12-22T08:33:51.804Z,95.02
2022-12-22T08:38:51.881Z,95.10
2022-12-22T08:43:51.769Z,95.03
2022-12-22T08:48:51.671Z,94.14
2022-12-22T08:54:05.106Z,94.39
2022-12-22T08:58:51.651Z,94.76
2022-12-22T09:03:52.989Z,95.04
2022-12-22T09:08:51.687Z,96.49
2022-12-22T09:13:51.658Z,96.21
2022-12-22T09:18:51.796Z,93.99
2022-12-22T09:23:51.656Z,93.68
2022-12-22T09:28:51.808Z,92.41
2022-12-22T09:33:51.723Z,93.18
2022-12-22T09:38:51.764Z,92.13
2022-12-22T09:43:51.895Z,90.28
2022-12-22T09:48:51.694Z,89.94
2022-12-22T09:53:51.880Z,88.37
2022-12-22T09:58:51.704Z,89.21
2022-12-22T10:03:56.567Z,89.49
2022-12-22T10:08:51.693Z,87.47
2022-12-22T10:13:51.822Z,88.37
2022-12-22T10:18:51.691Z,89.17
2022-12-22T10:23:51.777Z,89.18
2022-12-22T10:28:51.989Z,88.28
2022-12-22T10:33:53.080Z,88.20
2022-12-22T10:38:51.701Z,87.98
2022-12-22T10:43:51.729Z,86.50
2022-12-22T10:48:51.854Z,86.62
2022-12-22T10:53:51.709Z,86.99
2022-12-22T10:58:51.780Z,85.11
2022-12-22T11:03:51.792Z,84.08
2022-12-22T11:08:52.046Z,82.63
2022-12-22T11:13:51.733Z,81.60
2022-12-22T11:18:51.838Z,81.54
2022-12-22T11:23:51.914Z,81.51
2022-12-22T11:28:51.694Z,80.56
2022-12-22T11:38:51.742Z,81.24
2022-12-22T11:43:51.930Z,81.25
2022-12-22T11:48:51.735Z,80.76
2022-12-22T11:53:51.738Z,80.67
2022-12-22T11:58:51.722Z,81.49
2022-12-22T12:03:51.825Z,81.20
2022-12-22T12:08:51.905Z,81.44
2022-12-22T12:13:51.728Z,81.78
2022-12-22T12:18:51.899Z,82.27
2022-12-22T12:23:51.818Z,82.45
2022-12-22T12:28:51.776Z,82.22
2022-12-22T12:33:51.756Z,82.48
2022-12-22T12:43:51.747Z,82.01
2022-12-22T12:48:51.986Z,82.75
2022-12-22T12:53:51.958Z,82.32
2022-12-22T12:58:51.759Z,82.22
2022-12-22T13:04:04.133Z,82.22
2022-12-22T13:08:53.192Z,82.32
2022-12-22T13:18:52.214Z,83.88
2022-12-22T13:24:22.922Z,85.14
2022-12-22T13:28:51.762Z,86.35
2022-12-22T13:33:51.827Z,86.35
2022-12-22T13:38:51.734Z,86.83
2022-12-22T13:43:51.768Z,86.83
2022-12-22T13:48:51.779Z,87.70
2022-12-22T13:54:09.325Z,88.19
2022-12-22T13:58:51.915Z,88.45
2022-12-22T14:04:00.408Z,88.45
2022-12-22T14:08:51.885Z,88.09
2022-12-22T14:13:51.796Z,88.39
2022-12-22T14:18:51.849Z,88.53
2022-12-22T14:23:51.992Z,88.10
2022-12-22T14:28:51.821Z,88.51
2022-12-22T14:33:51.814Z,88.29
2022-12-22T14:38:51.805Z,88.65
2022-12-22T14:43:51.786Z,89.12
2022-12-22T14:48:51.794Z,88.93
2022-12-22T14:53:51.812Z,89.24
2022-12-22T14:58:51.808Z,90.11
2022-12-22T15:03:51.862Z,91.53
2022-12-22T15:08:52.008Z,91.76
2022-12-22T15:13:51.802Z,91.76
2022-12-22T15:18:51.974Z,92.38
2022-12-22T15:23:51.809Z,93.35
2022-12-22T15:33:51.835Z,94.01
2022-12-22T15:38:51.921Z,96.94
2022-12-22T15:43:57.861Z,97.03
2022-12-22T15:48:51.838Z,98.19
2022-12-22T15:53:51.836Z,98.75
2022-12-22T15:58:51.813Z,99.28
2022-12-22T16:03:52.332Z,99.38
2022-12-22T16:08:51.803Z,99.86
2022-12-22T16:13:51.825Z,100.00
2022-12-22T16:18:51.832Z,100.00
2022-12-22T16:23:51.864Z,99.96
2022-12-22T16:28:51.852Z,99.94
2022-12-22T16:33:51.823Z,100.00
2022-12-22T16:38:51.833Z,100.00
2022-12-22T16:48:52.033Z,100.00
2022-12-22T16:53:51.847Z,100.00
2022-12-22T16:58:52.016Z,100.00
2022-12-22T17:03:51.852Z,100.00
2022-12-22T17:08:51.976Z,100.00
2022-12-22T17:13:51.848Z,100.00
2022-12-22T17:18:51.899Z,100.00
2022-12-22T17:23:52.107Z,100.00
2022-12-22T17:28:51.856Z,100.00
2022-12-22T17:33:51.904Z,100.00
2022-12-22T17:38:51.865Z,100.00
2022-12-22T17:43:52.051Z,100.00
2022-12-22T17:48:51.890Z,100.00
2022-12-22T17:53:52.070Z,100.00
2022-12-22T17:58:51.897Z,100.00
2022-12-22T18:03:52.206Z,100.00
2022-12-22T18:08:52.368Z,100.00
2022-12-22T18:13:51.981Z,100.00
2022-12-22T18:18:52.209Z,100.00
2022-12-22T18:23:51.923Z,100.00
2022-12-22T18:33:52.034Z,100.00
2022-12-22T18:38:52.091Z,100.00
2022-12-22T18:43:51.947Z,100.00
2022-12-22T18:48:54.153Z,100.00
2022-12-22T18:53:52.096Z,100.00
2022-12-22T18:58:51.946Z,100.00
2022-12-22T19:03:53.280Z,100.00
2022-12-22T19:08:51.912Z,100.00
2022-12-22T19:18:51.933Z,100.00
2022-12-22T19:23:52.024Z,100.00
2022-12-22T19:28:52.159Z,100.00
2022-12-22T19:33:52.483Z,100.00
2022-12-22T19:38:54.692Z,100.00
2022-12-22T19:43:51.941Z,100.00
2022-12-22T19:48:51.902Z,100.00
2022-12-22T19:53:52.118Z,100.00
2022-12-22T19:58:52.074Z,100.00
2022-12-22T20:03:51.971Z,100.00
2022-12-22T20:08:52.018Z,100.00
2022-12-22T20:13:52.151Z,100.00
2022-12-22T20:18:52.190Z,100.00
2022-12-22T20:23:51.905Z,100.00
2022-12-22T20:28:51.976Z,100.00
2022-12-22T20:33:52.235Z,100.00
2022-12-22T20:43:52.113Z,100.00
2022-12-22T20:48:51.915Z,100.00
2022-12-22T20:53:52.215Z,100.00
2022-12-22T20:58:51.896Z,100.00
2022-12-22T21:03:52.182Z,100.00
2022-12-22T21:08:51.966Z,100.00
2022-12-22T21:13:52.027Z,100.00
2022-12-22T21:18:52.138Z,100.00
2022-12-22T21:23:51.929Z,100.00
2022-12-22T21:28:52.106Z,100.00
2022-12-22T21:33:51.984Z,100.00
2022-12-22T21:38:51.948Z,100.00
2022-12-22T21:43:51.964Z,100.00
2022-12-22T21:48:51.964Z,100.00
2022-12-22T21:53:51.954Z,100.00
2022-12-22T21:58:51.945Z,100.00
2022-12-22T22:03:52.310Z,100.00
2022-12-22T22:08:51.944Z,100.00
2022-12-22T22:18:52.020Z,100.00
2022-12-22T22:28:51.988Z,100.00
2022-12-22T22:33:51.978Z,100.00
2022-12-22T22:38:51.987Z,100.00
2022-12-22T22:43:52.028Z,100.00
2022-12-22T22:48:52.185Z,100.00
2022-12-22T22:53:51.996Z,100.00
2022-12-22T22:58:52.032Z,100.00
2022-12-22T23:03:52.100Z,100.00
2022-12-22T23:08:52.131Z,100.00
2022-12-22T23:13:52.005Z,100.00
2022-12-22T23:18:52.082Z,100.00
2022-12-22T23:23:51.999Z,100.00
2022-12-22T23:28:52.037Z,100.00
2022-12-22T23:33:51.979Z,100.00
2022-12-22T23:38:52.066Z,100.00
2022-12-22T23:43:52.172Z,100.00
2022-12-22T23:48:51.960Z,100.00
2022-12-22T23:53:52.153Z,100.00
2022-12-22T23:58:54.800Z,100.00
